Terminal Aerodrome Forecast
Issued by NWS Cleveland, OH

Home | Current Version | Previous Version | Graphics & Text | Print | Product List | Glossary Off
Versions: 1 2 3 4 5 6 7 8 9 10 11 12 13 14 15 16 17 18 19 20 21 22 23 24 25 26 27 28 29

991
FTUS41 KCLE 030918 AAB
TAFCLE
TAF AMD
KCLE 030918Z 0309/0412 28008KT P6SM OVC022
     FM031200 27009KT P6SM OVC018
     FM032100 28009KT P6SM OVC035=

USA.gov is the U.S. government's official web portal to all federal, state and local government web resources and services.